Saint John, Canada
Current Conditions -  °F | °C
As of 6:00 AM on Sunday 21 Dec 2014 (Local Time) from CYSJ Reporting Station
Light Snow Light Snow  
Wind Chill: 17°   Ceiling: 1700
Heat Index: 27°   Visibility: 15mi
Dew Point: 23°   Wind: 10mph
Humidity: 86%   Direction: 360°N
Pressure: 30.36"   Gusts: NA
Location:  45.27°N, 66.06°W
Report Text: CYSJ 211000Z 36009KT 15SM -SN FEW006 OVC017 M03/M05 A3036 RMK SF2SC6 SLP288
Loading
Personal Weather Stations






























Interactive Weather Map New forecast layout! Learn more

10-Day Weather Forecast

Advertisements
Track Severe Weather on mobile